createdAt,value
2023-12-22T00:02:57.433Z,97912.19
2023-12-22T00:05:59.666Z,97932.41
2023-12-22T00:09:01.888Z,97916.41
2023-12-22T00:12:04.892Z,97920.13
2023-12-22T00:15:07.225Z,97904.97
2023-12-22T00:18:09.722Z,97924.13
2023-12-22T00:21:12.458Z,97952.06
2023-12-22T00:24:14.747Z,97947.03
2023-12-22T00:27:16.948Z,97939.59
2023-12-22T00:30:19.214Z,97944.63
2023-12-22T00:33:21.502Z,97974.16
2023-12-22T00:36:25.621Z,97962.19
2023-12-22T00:39:27.931Z,97994.66
2023-12-22T00:42:30.133Z,97995.72
2023-12-22T00:45:32.310Z,98005.31
2023-12-22T00:48:34.695Z,98005.56
2023-12-22T00:51:36.925Z,97999.97
2023-12-22T00:54:39.135Z,98009.81
2023-12-22T00:57:41.447Z,98015.94
2023-12-22T01:00:43.773Z,98019.94
2023-12-22T01:03:46.080Z,98032.47
2023-12-22T01:06:48.395Z,98001.06
2023-12-22T01:09:50.643Z,97962.47
2023-12-22T01:12:52.799Z,97959.03
2023-12-22T01:15:54.989Z,97941.19
2023-12-22T01:18:57.412Z,97972.06
2023-12-22T01:21:59.726Z,97994.97
2023-12-22T01:25:02.417Z,97985.91
2023-12-22T01:28:06.269Z,98005.88
2023-12-22T01:31:08.615Z,98008.03
2023-12-22T01:34:10.819Z,98033.03
2023-12-22T01:37:12.967Z,98011.22
2023-12-22T01:40:15.183Z,98029.56
2023-12-22T01:43:22.713Z,98005.84
2023-12-22T01:46:25.565Z,98013.84
2023-12-22T01:49:28.138Z,98009.84
2023-12-22T01:52:30.696Z,98006.41
2023-12-22T01:55:33.060Z,98006.41
2023-12-22T01:58:37.711Z,98017.84
2023-12-22T02:01:50.035Z,98003.47
2023-12-22T02:04:52.479Z,97994.94
2023-12-22T02:07:54.812Z,97983.78
2023-12-22T02:10:57.218Z,97918.06
2023-12-22T02:13:59.723Z,97923.09
2023-12-22T02:17:11.091Z,97950.50
2023-12-22T02:20:14.226Z,97915.09
2023-12-22T02:23:16.512Z,97932.66
2023-12-22T02:26:26.759Z,97928.41
2023-12-22T02:29:31.470Z,97931.34
2023-12-22T02:32:36.765Z,97936.59
2023-12-22T02:35:39.626Z,97923.06
2023-12-22T02:38:43.091Z,97937.44
2023-12-22T02:41:45.426Z,97936.66
2023-12-22T02:44:47.702Z,97958.25
2023-12-22T02:47:50.314Z,97968.63
2023-12-22T02:50:52.805Z,97974.47
2023-12-22T02:53:55.080Z,97988.56
2023-12-22T02:56:57.351Z,98014.09
2023-12-22T02:59:59.679Z,97972.34
2023-12-22T03:03:01.933Z,97940.41
2023-12-22T03:06:04.740Z,97929.75
2023-12-22T03:09:07.145Z,97958.50
2023-12-22T03:12:10.069Z,97952.66
2023-12-22T03:15:12.467Z,97953.19
2023-12-22T03:18:14.926Z,97952.66
2023-12-22T03:21:19.740Z,97959.56
2023-12-22T03:24:24.439Z,97965.13
2023-12-22T03:27:27.688Z,97962.44
2023-12-22T03:30:30.079Z,97963.56
2023-12-22T03:33:32.449Z,97969.69
2023-12-22T03:36:34.892Z,98010.94
2023-12-22T03:39:37.132Z,98014.41
2023-12-22T03:42:39.420Z,98027.72
2023-12-22T03:45:41.791Z,98012.00
2023-12-22T03:48:44.138Z,97992.28
2023-12-22T03:51:46.550Z,97987.75
2023-12-22T03:54:48.869Z,97985.63
2023-12-22T03:57:51.391Z,98003.69
2023-12-22T04:00:53.942Z,97996.78
2023-12-22T04:03:56.318Z,97992.78
2023-12-22T04:06:58.618Z,97993.84
2023-12-22T04:10:00.968Z,98031.69
2023-12-22T04:13:03.613Z,98024.19
2023-12-22T04:16:06.348Z,98027.16
2023-12-22T04:19:11.709Z,98035.94
2023-12-22T04:22:14.531Z,98029.78
2023-12-22T04:25:17.195Z,98052.97
2023-12-22T04:28:19.599Z,98045.78
2023-12-22T04:31:22.002Z,98051.63
2023-12-22T04:34:24.354Z,98044.72
2023-12-22T04:37:26.786Z,98105.16
2023-12-22T04:40:29.545Z,98108.88
2023-12-22T04:43:31.949Z,98104.09
2023-12-22T04:46:34.319Z,98076.16
2023-12-22T04:49:36.565Z,98082.25
2023-12-22T04:52:38.963Z,98080.94
2023-12-22T04:55:44.126Z,98080.41
2023-12-22T04:58:46.573Z,98074.53
2023-12-22T05:01:49.030Z,98091.84
2023-12-22T05:04:52.552Z,98109.16
2023-12-22T05:07:55.149Z,98101.69
2023-12-22T05:10:57.591Z,98115.00
2023-12-22T05:14:02.024Z,98115.25
2023-12-22T05:17:04.979Z,98119.00
2023-12-22T05:20:08.117Z,98128.03
2023-12-22T05:23:10.514Z,98119.78
2023-12-22T05:26:18.094Z,98119.78
2023-12-22T05:29:20.855Z,98123.75
2023-12-22T05:32:23.081Z,98129.88
2023-12-22T05:35:25.315Z,98140.81
2023-12-22T05:38:27.584Z,98147.47
2023-12-22T05:41:30.092Z,98141.59
2023-12-22T05:44:32.322Z,98132.00
2023-12-22T05:47:34.728Z,98130.91
2023-12-22T05:50:37.249Z,98120.81
2023-12-22T05:53:39.910Z,98129.34
2023-12-22T05:56:42.250Z,98139.44
2023-12-22T05:59:44.498Z,98143.97
2023-12-22T06:02:46.690Z,98131.16
2023-12-22T06:05:49.717Z,98147.16
2023-12-22T06:08:52.476Z,98159.88
2023-12-22T06:11:55.330Z,98164.69
2023-12-22T06:14:57.643Z,98180.69
2023-12-22T06:17:59.985Z,98176.94
2023-12-22T06:21:02.457Z,98163.59
2023-12-22T06:24:05.831Z,98179.34
2023-12-22T06:27:08.068Z,98203.59
2023-12-22T06:30:10.741Z,98200.16
2023-12-22T06:33:13.224Z,98209.72
2023-12-22T06:36:22.730Z,98196.09
2023-12-22T06:39:25.078Z,98195.84
2023-12-22T06:42:27.334Z,98208.63
2023-12-22T06:45:29.736Z,98191.34
2023-12-22T06:48:33.865Z,98208.41
2023-12-22T06:51:37.053Z,98208.94
2023-12-22T06:54:39.532Z,98196.16
2023-12-22T06:57:42.339Z,98191.88
2023-12-22T07:00:45.072Z,98218.00
2023-12-22T07:03:49.291Z,98214.00
2023-12-22T07:06:51.965Z,98236.34
2023-12-22T07:09:54.225Z,98213.47
2023-12-22T07:12:56.519Z,98228.91
2023-12-22T07:15:58.941Z,98249.16
2023-12-22T07:19:01.950Z,98254.47
2023-12-22T07:22:05.512Z,98270.19
2023-12-22T07:25:09.761Z,98272.06
2023-12-22T07:28:12.085Z,98261.16
2023-12-22T07:31:15.570Z,98261.97
2023-12-22T07:34:22.266Z,98266.75
2023-12-22T07:37:24.685Z,98269.69
2023-12-22T07:40:27.084Z,98262.22
2023-12-22T07:43:30.762Z,98273.16
2023-12-22T07:46:33.159Z,98273.16
2023-12-22T07:49:35.638Z,98282.75
2023-12-22T07:52:40.304Z,98286.47
2023-12-22T07:55:44.759Z,98307.00
2023-12-22T07:58:47.649Z,98298.22
2023-12-22T08:01:50.033Z,98292.63
2023-12-22T08:04:52.444Z,98288.63
2023-12-22T08:07:54.742Z,98301.69
2023-12-22T08:10:57.184Z,98288.09
2023-12-22T08:14:01.673Z,98309.19
2023-12-22T08:17:04.130Z,98287.31
2023-12-22T08:20:13.925Z,98289.44
2023-12-22T08:23:23.004Z,98316.91
2023-12-22T08:26:25.690Z,98302.75
2023-12-22T08:29:28.034Z,98319.84
2023-12-22T08:32:30.442Z,98328.66
2023-12-22T08:35:34.143Z,98302.28
2023-12-22T08:38:38.164Z,98315.34
2023-12-22T08:41:40.994Z,98321.47
2023-12-22T08:44:43.536Z,98312.69
2023-12-22T08:47:45.927Z,98326.53
2023-12-22T08:50:48.269Z,98347.34
2023-12-22T08:53:51.359Z,98345.75
2023-12-22T08:56:53.954Z,98324.94
2023-12-22T08:59:56.766Z,98332.69
2023-12-22T09:02:59.230Z,98336.41
2023-12-22T09:06:01.723Z,98363.06
2023-12-22T09:09:05.073Z,98353.72
2023-12-22T09:12:07.523Z,98355.59
2023-12-22T09:15:09.781Z,98351.84
2023-12-22T09:18:12.176Z,98342.53
2023-12-22T09:21:14.480Z,98345.47
2023-12-22T09:24:18.161Z,98335.88
2023-12-22T09:27:20.952Z,98341.47
2023-12-22T09:30:23.384Z,98334.53
2023-12-22T09:33:25.949Z,98308.97
2023-12-22T09:36:28.319Z,98327.63
2023-12-22T09:39:30.899Z,98343.88
2023-12-22T09:42:33.223Z,98309.22
2023-12-22T09:45:35.834Z,98329.22
2023-12-22T09:48:41.190Z,98332.44
2023-12-22T09:51:44.288Z,98339.34
2023-12-22T09:54:48.120Z,98336.69
2023-12-22T09:57:51.361Z,98337.75
2023-12-22T10:00:55.102Z,98339.88
2023-12-22T10:03:57.548Z,98334.03
2023-12-22T10:07:02.028Z,98339.88
2023-12-22T10:10:05.247Z,98339.38
2023-12-22T10:13:10.791Z,98324.44
2023-12-22T10:16:13.180Z,98327.34
2023-12-22T10:19:15.529Z,98309.50
2023-12-22T10:22:18.795Z,98323.38
2023-12-22T10:25:21.687Z,98332.97
2023-12-22T10:28:26.087Z,98311.91
2023-12-22T10:31:28.765Z,98290.84
2023-12-22T10:34:34.542Z,98292.72
2023-12-22T10:37:37.584Z,98290.84
2023-12-22T10:40:40.040Z,98284.69
2023-12-22T10:43:42.537Z,98274.03
2023-12-22T10:46:45.278Z,98267.34
2023-12-22T10:49:47.968Z,98264.44
2023-12-22T10:52:52.211Z,98260.69
2023-12-22T10:55:54.796Z,98241.50
2023-12-22T10:58:57.204Z,98239.63
2023-12-22T11:02:00.001Z,98266.50
2023-12-22T11:05:06.364Z,98252.63
2023-12-22T11:08:10.141Z,98261.44
2023-12-22T11:11:18.630Z,98259.25
2023-12-22T11:14:21.589Z,98249.41
2023-12-22T11:17:24.100Z,98271.50
2023-12-22T11:20:27.371Z,98257.84
2023-12-22T11:23:31.847Z,98243.19
2023-12-22T11:26:34.469Z,98234.66
2023-12-22T11:29:38.174Z,98242.34
2023-12-22T11:32:41.018Z,98234.34
2023-12-22T11:35:44.109Z,98221.75
2023-12-22T11:38:47.433Z,98236.16
2023-12-22T11:41:50.446Z,98230.28
2023-12-22T11:44:54.089Z,98237.16
2023-12-22T11:47:57.106Z,98232.66
2023-12-22T11:50:59.603Z,98216.41
2023-12-22T11:54:02.703Z,98234.00
2023-12-22T11:57:05.056Z,98233.22
2023-12-22T12:00:20.951Z,98216.59
2023-12-22T12:03:24.052Z,98196.56
2023-12-22T12:06:26.305Z,98266.59
2023-12-22T12:09:46.434Z,98255.69
2023-12-22T12:12:48.748Z,98253.06
2023-12-22T12:15:52.614Z,98254.34
2023-12-22T12:18:55.027Z,98266.63
2023-12-22T12:21:57.658Z,98255.78
2023-12-22T12:25:02.413Z,98270.44
2023-12-22T12:28:06.177Z,98265.41
2023-12-22T12:31:09.764Z,98268.31
2023-12-22T12:34:12.166Z,98271.00
2023-12-22T12:37:15.260Z,98270.22
2023-12-22T12:40:20.005Z,98275.81
2023-12-22T12:43:22.361Z,98237.94
2023-12-22T12:46:24.919Z,98243.53
2023-12-22T12:49:30.660Z,98262.22
2023-12-22T12:52:33.196Z,98273.19
2023-12-22T12:55:35.653Z,98260.41
2023-12-22T12:58:40.472Z,98306.28
2023-12-22T13:01:44.932Z,98320.69
2023-12-22T13:04:47.561Z,98315.88
2023-12-22T13:07:50.203Z,98323.31
2023-12-22T13:11:01.444Z,98342.22
2023-12-22T13:14:04.031Z,98349.09
2023-12-22T13:17:07.223Z,98366.72
2023-12-22T13:20:11.248Z,98393.09
2023-12-22T13:23:18.707Z,98343.22
2023-12-22T13:26:21.388Z,98344.13
2023-12-22T13:29:23.603Z,98335.59
2023-12-22T13:32:44.314Z,98306.56
2023-12-22T13:35:47.831Z,98289.22
2023-12-22T13:38:50.249Z,98290.56
2023-12-22T13:41:52.551Z,98276.97
2023-12-22T13:44:55.214Z,98285.25
2023-12-22T13:47:58.045Z,98296.19
2023-12-22T13:51:01.338Z,98285.78
2023-12-22T13:54:03.868Z,98273.00
2023-12-22T13:57:06.072Z,98275.13
2023-12-22T14:00:20.538Z,98274.59
2023-12-22T14:03:23.029Z,98251.66
2023-12-22T14:06:27.040Z,98256.97
2023-12-22T14:09:33.010Z,98267.59
2023-12-22T14:12:37.751Z,98275.06
2023-12-22T14:15:44.907Z,98268.16
2023-12-22T14:18:49.834Z,98274.59
2023-12-22T14:21:52.223Z,98289.22
2023-12-22T14:24:54.873Z,98285.22
2023-12-22T14:27:58.512Z,98291.56
2023-12-22T14:31:00.830Z,98298.44
2023-12-22T14:34:03.055Z,98287.44
2023-12-22T14:37:05.613Z,98268.22
2023-12-22T14:40:10.282Z,98278.34
2023-12-22T14:43:12.575Z,98261.81
2023-12-22T14:46:14.884Z,98278.03
2023-12-22T14:49:17.790Z,98308.13
2023-12-22T14:52:21.284Z,98328.63
2023-12-22T14:55:23.641Z,98313.91
2023-12-22T14:58:26.151Z,98336.06
2023-12-22T15:04:44.885Z,98332.59
2023-12-22T15:07:47.441Z,98344.06
2023-12-22T15:10:49.905Z,98349.13
2023-12-22T15:13:52.595Z,98327.00
2023-12-22T15:16:55.009Z,98303.00
2023-12-22T15:19:57.382Z,98270.81
2023-12-22T15:22:59.808Z,98298.00
2023-12-22T15:26:02.183Z,98333.41
2023-12-22T15:29:05.020Z,98348.00
2023-12-22T15:32:07.422Z,98356.56
2023-12-22T15:35:10.020Z,98348.63
2023-12-22T15:38:12.857Z,98360.81
2023-12-22T15:41:15.558Z,98355.03
2023-12-22T15:44:17.918Z,98369.44
2023-12-22T15:47:20.392Z,98348.34
2023-12-22T15:50:22.721Z,98336.81
2023-12-22T15:53:25.093Z,98358.44
2023-12-22T15:56:30.190Z,98372.00
2023-12-22T15:59:32.372Z,98399.16
2023-12-22T16:02:39.635Z,98401.75
2023-12-22T16:05:41.898Z,98412.59
2023-12-22T16:12:00.455Z,98396.63
2023-12-22T16:15:02.750Z,98383.81
2023-12-22T16:18:05.511Z,98398.72
2023-12-22T16:21:07.930Z,98393.22
2023-12-22T16:24:10.247Z,98385.16
2023-12-22T16:27:12.538Z,98383.22
2023-12-22T16:30:14.946Z,98386.19
2023-12-22T16:33:17.678Z,98410.94
2023-12-22T16:36:21.731Z,98392.25
2023-12-22T16:39:24.595Z,98372.19
2023-12-22T16:42:27.900Z,98397.25
2023-12-22T16:45:30.152Z,98389.19
2023-12-22T16:48:33.009Z,98380.94
2023-12-22T16:51:36.878Z,98384.16
2023-12-22T16:54:40.515Z,98396.25
2023-12-22T16:57:44.212Z,98393.78
2023-12-22T17:01:13.913Z,98395.34
2023-12-22T17:04:13.303Z,98401.19
2023-12-22T17:07:16.526Z,98403.53
2023-12-22T17:10:18.865Z,98408.13
2023-12-22T17:13:21.145Z,98403.69
2023-12-22T17:16:23.389Z,98400.84
2023-12-22T17:19:25.669Z,98403.72
2023-12-22T17:22:28.246Z,98387.28
2023-12-22T17:25:30.789Z,98371.44
2023-12-22T17:28:33.196Z,98402.13
2023-12-22T17:31:35.592Z,98391.41
2023-12-22T17:34:38.065Z,98401.50
2023-12-22T17:37:40.384Z,98407.94
2023-12-22T17:40:42.626Z,98431.22
2023-12-22T17:43:45.427Z,98440.78
2023-12-22T17:46:47.653Z,98438.66
2023-12-22T17:49:49.931Z,98432.75
2023-12-22T17:52:52.215Z,98406.28
2023-12-22T17:55:54.912Z,98406.50
2023-12-22T17:58:57.240Z,98414.13
2023-12-22T18:01:59.549Z,98386.06
2023-12-22T18:05:01.993Z,98387.31
2023-12-22T18:08:05.805Z,98419.25
2023-12-22T18:11:08.086Z,98404.91
2023-12-22T18:14:10.960Z,98415.38
2023-12-22T18:17:13.515Z,98424.19
2023-12-22T18:20:16.125Z,98404.41
2023-12-22T18:23:20.683Z,98430.81
2023-12-22T18:26:22.944Z,98424.53
2023-12-22T18:29:25.300Z,98425.44
2023-12-22T18:32:27.583Z,98447.75
2023-12-22T18:35:31.994Z,98461.03
2023-12-22T18:38:34.612Z,98457.38
2023-12-22T18:41:36.960Z,98477.94
2023-12-22T18:44:39.547Z,98440.50
2023-12-22T18:47:41.890Z,98453.28
2023-12-22T18:50:48.096Z,98466.63
2023-12-22T18:53:54.670Z,98442.13
2023-12-22T18:56:57.254Z,98434.66
2023-12-22T18:59:59.534Z,98446.22
2023-12-22T19:03:01.987Z,98434.72
2023-12-22T19:06:04.954Z,98432.34
2023-12-22T19:09:07.659Z,98424.44
2023-12-22T19:12:09.907Z,98408.94
2023-12-22T19:15:12.327Z,98382.44
2023-12-22T19:18:15.035Z,98373.91
2023-12-22T19:21:17.486Z,98371.59
2023-12-22T19:24:19.745Z,98377.31
2023-12-22T19:27:22.128Z,98348.06
2023-12-22T19:30:24.471Z,98378.53
2023-12-22T19:33:29.795Z,98366.13
2023-12-22T19:36:32.544Z,98366.66
2023-12-22T19:39:34.974Z,98360.97
2023-12-22T19:42:37.323Z,98350.09
2023-12-22T19:45:39.604Z,98341.38
2023-12-22T19:48:41.823Z,98335.06
2023-12-22T19:51:44.128Z,98323.53
2023-12-22T19:54:46.502Z,98308.69
2023-12-22T19:57:49.806Z,98323.84
2023-12-22T20:00:52.408Z,98314.72
2023-12-22T20:03:55.648Z,98321.25
2023-12-22T20:06:58.763Z,98332.97
2023-12-22T20:10:01.133Z,98325.03
2023-12-22T20:13:03.610Z,98331.91
2023-12-22T20:16:07.903Z,98338.47
2023-12-22T20:19:10.506Z,98346.00
2023-12-22T20:22:12.757Z,98341.94
2023-12-22T20:25:15.144Z,98350.56
2023-12-22T20:28:18.307Z,98360.41
2023-12-22T20:31:21.555Z,98336.13
2023-12-22T20:34:23.833Z,98355.91
2023-12-22T20:37:26.024Z,98338.53
2023-12-22T20:40:28.233Z,98340.25
2023-12-22T20:43:30.459Z,98336.28
2023-12-22T20:46:32.875Z,98310.84
2023-12-22T20:49:35.398Z,98311.47
2023-12-22T20:52:40.189Z,98293.66
2023-12-22T20:55:42.521Z,98303.47
2023-12-22T20:58:44.839Z,98287.28
2023-12-22T21:01:51.163Z,98304.69
2023-12-22T21:04:53.755Z,98299.03
2023-12-22T21:07:56.753Z,98284.34
2023-12-22T21:10:59.137Z,98272.63
2023-12-22T21:14:02.546Z,98277.44
2023-12-22T21:17:04.916Z,98264.63
2023-12-22T21:20:07.714Z,98280.19
2023-12-22T21:23:15.351Z,98291.22
2023-12-22T21:26:20.490Z,98290.69
2023-12-22T21:29:23.109Z,98294.41
2023-12-22T21:32:25.937Z,98305.34
2023-12-22T21:35:29.012Z,98310.34
2023-12-22T21:38:32.572Z,98331.56
2023-12-22T21:41:34.826Z,98339.25
2023-12-22T21:44:43.975Z,98362.13
2023-12-22T21:47:46.827Z,98340.56
2023-12-22T21:50:49.421Z,98369.03
2023-12-22T21:53:52.196Z,98353.22
2023-12-22T21:56:56.470Z,98344.13
2023-12-22T21:59:58.814Z,98373.69
2023-12-22T22:03:01.075Z,98361.63
2023-12-22T22:06:03.674Z,98376.19
2023-12-22T22:09:07.206Z,98366.34
2023-12-22T22:12:10.425Z,98358.69
2023-12-22T22:15:12.849Z,98370.16
2023-12-22T22:18:16.201Z,98376.88
2023-12-22T22:21:18.456Z,98353.91
2023-12-22T22:24:20.790Z,98373.59
2023-12-22T22:27:23.096Z,98376.31
2023-12-22T22:30:25.520Z,98370.66
2023-12-22T22:33:28.026Z,98400.91
2023-12-22T22:36:30.305Z,98400.81
2023-12-22T22:39:32.477Z,98398.22
2023-12-22T22:42:34.849Z,98390.06
2023-12-22T22:45:37.042Z,98379.59
2023-12-22T22:48:39.488Z,98376.69
2023-12-22T22:51:42.036Z,98384.09
2023-12-22T22:54:44.234Z,98383.09
2023-12-22T22:57:46.598Z,98388.47
2023-12-22T23:00:48.882Z,98395.56
2023-12-22T23:03:52.606Z,98378.31
2023-12-22T23:06:56.699Z,98383.28
2023-12-22T23:09:59.448Z,98372.34
2023-12-22T23:13:01.666Z,98377.91
2023-12-22T23:16:04.084Z,98409.94
2023-12-22T23:19:06.393Z,98406.91
2023-12-22T23:22:08.842Z,98421.16
2023-12-22T23:25:11.467Z,98426.28
2023-12-22T23:28:13.676Z,98422.66
2023-12-22T23:31:19.490Z,98415.91
2023-12-22T23:34:22.078Z,98404.16
2023-12-22T23:37:24.251Z,98419.75
2023-12-22T23:40:26.393Z,98429.69
2023-12-22T23:43:28.563Z,98431.41
2023-12-22T23:46:30.726Z,98437.28
2023-12-22T23:49:32.960Z,98436.22
2023-12-22T23:52:35.147Z,98427.09
2023-12-22T23:55:37.530Z,98423.97
2023-12-22T23:58:39.780Z,98438.19
